createdAt,value
2022-09-29T00:00:32.371Z,86.72
2022-09-29T00:03:26.627Z,86.80
2022-09-29T00:05:59.826Z,86.93
2022-09-29T00:08:33.085Z,86.99
2022-09-29T00:11:10.550Z,86.96
2022-09-29T00:13:43.105Z,87.20
2022-09-29T00:16:16.424Z,87.14
2022-09-29T00:18:49.482Z,87.13
2022-09-29T00:21:22.380Z,87.11
2022-09-29T00:23:55.232Z,86.94
2022-09-29T00:26:28.044Z,86.94
2022-09-29T00:29:01.992Z,87.12
2022-09-29T00:31:35.659Z,87.17
2022-09-29T00:34:07.926Z,87.16
2022-09-29T00:36:41.653Z,86.99
2022-09-29T00:39:14.531Z,87.16
2022-09-29T00:41:46.955Z,87.25
2022-09-29T00:44:56.841Z,87.02
2022-09-29T00:47:30.613Z,87.30
2022-09-29T00:50:07.770Z,87.22
2022-09-29T00:52:45.351Z,87.19
2022-09-29T00:55:21.312Z,87.08
2022-09-29T00:57:57.545Z,87.27
2022-09-29T01:00:29.784Z,87.16
2022-09-29T01:03:06.079Z,87.28
2022-09-29T01:05:44.157Z,87.32
2022-09-29T01:08:22.020Z,87.21
2022-09-29T01:10:55.365Z,87.15
2022-09-29T01:13:29.232Z,87.14
2022-09-29T01:16:01.505Z,87.03
2022-09-29T01:18:35.460Z,87.01
2022-09-29T01:21:30.329Z,87.05
2022-09-29T01:24:33.343Z,86.99
2022-09-29T01:27:26.763Z,87.01
2022-09-29T01:30:15.081Z,86.90
2022-09-29T01:33:02.222Z,86.98
2022-09-29T01:35:44.806Z,86.98
2022-09-29T01:38:33.045Z,86.81
2022-09-29T01:41:11.963Z,86.85
2022-09-29T01:43:49.087Z,86.98
2022-09-29T01:46:25.703Z,87.11
2022-09-29T01:48:59.930Z,86.96
2022-09-29T01:51:39.398Z,87.00
2022-09-29T01:54:19.030Z,86.87
2022-09-29T01:56:57.716Z,87.02
2022-09-29T01:59:36.965Z,86.96
2022-09-29T02:02:16.503Z,86.98
2022-09-29T02:04:52.263Z,86.91
2022-09-29T02:07:31.364Z,86.77
2022-09-29T02:10:08.488Z,86.74
2022-09-29T02:12:43.526Z,86.73
2022-09-29T02:15:20.383Z,86.58
2022-09-29T02:17:52.215Z,86.59
2022-09-29T02:20:24.615Z,86.57
2022-09-29T02:22:56.973Z,86.60
2022-09-29T02:25:29.709Z,86.79
2022-09-29T02:28:02.512Z,86.75
2022-09-29T02:30:35.514Z,86.66
2022-09-29T02:33:07.887Z,86.57
2022-09-29T02:35:47.093Z,86.60
2022-09-29T02:38:27.833Z,86.57
2022-09-29T02:41:06.645Z,86.42
2022-09-29T02:43:58.052Z,86.41
2022-09-29T02:46:43.996Z,86.53
2022-09-29T02:49:44.992Z,86.44
2022-09-29T02:52:27.725Z,86.38
2022-09-29T02:55:09.333Z,86.45
2022-09-29T02:57:49.990Z,86.15
2022-09-29T03:00:23.497Z,85.82
2022-09-29T03:02:55.532Z,85.87
2022-09-29T03:05:27.526Z,85.85
2022-09-29T03:07:59.604Z,85.83
2022-09-29T03:10:31.908Z,85.46
2022-09-29T03:13:04.072Z,85.10
2022-09-29T03:15:36.435Z,84.84
2022-09-29T03:18:10.223Z,84.50
2022-09-29T03:20:42.775Z,84.44
2022-09-29T03:23:14.864Z,84.31
2022-09-29T03:25:46.916Z,84.17
2022-09-29T03:28:19.248Z,84.05
2022-09-29T03:30:51.252Z,83.95
2022-09-29T03:33:23.318Z,83.90
2022-09-29T03:35:55.384Z,83.90
2022-09-29T03:38:27.655Z,83.93
2022-09-29T03:40:59.854Z,83.75
2022-09-29T03:43:32.011Z,83.85
2022-09-29T03:46:04.155Z,83.65
2022-09-29T03:48:36.868Z,83.81
2022-09-29T03:51:10.380Z,83.87
2022-09-29T03:53:42.542Z,84.15
2022-09-29T03:56:15.237Z,83.86
2022-09-29T03:58:49.562Z,83.89
2022-09-29T04:01:22.743Z,84.05
2022-09-29T04:03:54.825Z,84.14
2022-09-29T04:06:27.876Z,83.86
2022-09-29T04:08:59.986Z,84.18
2022-09-29T04:11:32.213Z,84.15
2022-09-29T04:14:04.372Z,84.28
2022-09-29T04:16:36.755Z,84.19
2022-09-29T04:19:08.916Z,84.32
2022-09-29T04:21:41.095Z,84.27
2022-09-29T04:24:13.394Z,84.35
2022-09-29T04:26:46.521Z,84.25
2022-09-29T04:29:18.869Z,84.32
2022-09-29T04:31:51.239Z,84.32
2022-09-29T04:34:23.396Z,84.49
2022-09-29T04:36:55.690Z,84.60
2022-09-29T04:39:28.241Z,84.66
2022-09-29T04:42:00.276Z,84.67
2022-09-29T04:44:32.633Z,84.62
2022-09-29T04:47:04.823Z,84.52
2022-09-29T04:49:37.800Z,84.69
2022-09-29T04:52:12.258Z,84.68
2022-09-29T04:54:44.455Z,84.66
2022-09-29T04:57:16.907Z,84.75
2022-09-29T04:59:51.819Z,84.69
2022-09-29T05:02:24.380Z,84.80
2022-09-29T05:04:56.557Z,84.97
2022-09-29T05:07:28.809Z,85.02
2022-09-29T05:10:00.918Z,84.87
2022-09-29T05:12:33.262Z,84.94
2022-09-29T05:15:06.406Z,84.82
2022-09-29T05:17:39.522Z,84.90
2022-09-29T05:20:13.278Z,84.76
2022-09-29T05:22:45.424Z,84.77
2022-09-29T05:25:17.615Z,84.79
2022-09-29T05:27:49.988Z,84.77
2022-09-29T05:30:22.216Z,84.63
2022-09-29T05:32:58.803Z,84.49
2022-09-29T05:35:29.598Z,84.62
2022-09-29T05:38:01.973Z,84.55
2022-09-29T05:40:34.084Z,84.62
2022-09-29T05:43:06.849Z,84.39
2022-09-29T05:45:39.260Z,84.36
2022-09-29T05:48:11.686Z,84.26
2022-09-29T05:50:43.882Z,84.33
2022-09-29T05:53:16.240Z,84.43
2022-09-29T05:55:48.334Z,84.34
2022-09-29T05:58:20.594Z,84.30
2022-09-29T06:00:53.261Z,84.26
2022-09-29T06:03:25.554Z,84.15
2022-09-29T06:05:57.614Z,84.06
2022-09-29T06:08:29.717Z,84.03
2022-09-29T06:11:08.381Z,83.93
2022-09-29T06:13:43.360Z,83.94
2022-09-29T06:16:16.607Z,83.98
2022-09-29T06:18:49.558Z,83.80
2022-09-29T06:21:23.936Z,83.89
2022-09-29T06:23:57.370Z,83.58
2022-09-29T06:26:30.436Z,83.53
2022-09-29T06:29:04.420Z,83.30
2022-09-29T06:31:37.441Z,83.23
2022-09-29T06:34:10.612Z,83.30
2022-09-29T06:37:02.868Z,83.24
2022-09-29T06:39:35.657Z,83.27
2022-09-29T06:42:08.511Z,83.12
2022-09-29T06:44:41.183Z,83.27
2022-09-29T06:47:13.703Z,83.11
2022-09-29T06:49:54.403Z,82.94
2022-09-29T06:52:38.542Z,82.79
2022-09-29T06:55:11.466Z,82.64
2022-09-29T06:57:45.913Z,82.58
2022-09-29T07:00:18.603Z,82.22
2022-09-29T07:02:51.099Z,82.13
2022-09-29T07:05:23.478Z,82.17
2022-09-29T07:08:00.702Z,82.23
2022-09-29T07:10:33.504Z,81.90
2022-09-29T07:13:06.044Z,81.66
2022-09-29T07:15:38.367Z,81.68
2022-09-29T07:18:10.798Z,81.62
2022-09-29T07:20:44.586Z,81.51
2022-09-29T07:23:16.902Z,81.43
2022-09-29T07:25:52.456Z,81.18
2022-09-29T07:28:25.617Z,81.05
2022-09-29T07:31:14.493Z,80.85
2022-09-29T07:33:49.274Z,80.92
2022-09-29T07:36:22.672Z,80.79
2022-09-29T07:38:55.099Z,80.80
2022-09-29T07:41:28.220Z,80.61
2022-09-29T07:44:00.506Z,80.41
2022-09-29T07:46:33.190Z,79.86
2022-09-29T07:49:06.545Z,79.92
2022-09-29T07:51:39.262Z,79.66
2022-09-29T07:54:11.559Z,79.62
2022-09-29T07:56:43.969Z,79.58
2022-09-29T07:59:16.649Z,79.44
2022-09-29T08:01:48.838Z,78.74
2022-09-29T08:04:21.200Z,78.66
2022-09-29T08:06:53.765Z,78.83
2022-09-29T08:09:38.174Z,78.45
2022-09-29T08:12:14.016Z,77.69
2022-09-29T08:14:46.233Z,77.10
2022-09-29T08:17:18.450Z,76.94
2022-09-29T08:19:50.823Z,76.60
2022-09-29T08:22:22.998Z,76.29
2022-09-29T08:24:55.269Z,76.30
2022-09-29T08:27:29.344Z,76.31
2022-09-29T08:30:01.802Z,76.54
2022-09-29T08:32:34.231Z,76.26
2022-09-29T08:35:09.832Z,75.59
2022-09-29T08:37:42.152Z,74.70
2022-09-29T08:40:15.376Z,73.74
2022-09-29T08:42:55.553Z,73.66
2022-09-29T08:45:33.351Z,73.54
2022-09-29T08:48:21.661Z,72.99
2022-09-29T08:51:00.297Z,73.48
2022-09-29T08:53:38.529Z,73.51
2022-09-29T08:56:16.738Z,72.70
2022-09-29T08:58:49.008Z,72.57
2022-09-29T09:01:31.955Z,72.20
2022-09-29T09:04:34.691Z,71.67
2022-09-29T09:07:16.439Z,70.88
2022-09-29T09:10:03.639Z,70.81
2022-09-29T09:12:52.384Z,70.21
2022-09-29T09:15:35.964Z,70.15
2022-09-29T09:18:22.718Z,70.05
2022-09-29T09:21:03.249Z,70.04
2022-09-29T09:23:48.844Z,70.10
2022-09-29T09:26:22.478Z,70.12
2022-09-29T09:29:00.209Z,70.18
2022-09-29T09:31:40.738Z,69.76
2022-09-29T09:34:23.079Z,69.94
2022-09-29T09:37:08.531Z,69.71
2022-09-29T09:39:50.362Z,69.80
2022-09-29T09:42:27.034Z,69.54
2022-09-29T09:45:04.563Z,69.27
2022-09-29T09:47:43.460Z,69.46
2022-09-29T09:50:18.962Z,69.66
2022-09-29T09:52:57.961Z,69.72
2022-09-29T09:55:35.029Z,69.83
2022-09-29T09:58:26.102Z,69.91
2022-09-29T10:01:03.219Z,69.68
2022-09-29T10:03:38.290Z,69.17
2022-09-29T10:06:11.160Z,69.57
2022-09-29T10:08:43.965Z,69.77
2022-09-29T10:11:28.237Z,69.89
2022-09-29T10:14:05.729Z,69.93
2022-09-29T10:16:45.337Z,69.81
2022-09-29T10:19:22.346Z,69.92
2022-09-29T10:21:55.104Z,69.94
2022-09-29T10:24:31.997Z,69.80
2022-09-29T10:27:05.594Z,70.09
2022-09-29T10:29:41.366Z,70.24
2022-09-29T10:32:18.064Z,70.10
2022-09-29T10:34:56.073Z,70.36
2022-09-29T10:37:35.689Z,70.36
2022-09-29T10:40:20.968Z,70.33
2022-09-29T10:42:54.179Z,70.29
2022-09-29T10:45:29.411Z,70.30
2022-09-29T10:48:16.532Z,70.18
2022-09-29T10:50:56.285Z,70.23
2022-09-29T10:53:35.433Z,70.29
2022-09-29T10:56:17.853Z,70.36
2022-09-29T10:59:03.277Z,70.38
2022-09-29T11:01:49.903Z,70.35
2022-09-29T11:04:27.567Z,70.27
2022-09-29T11:07:07.749Z,70.68
2022-09-29T11:09:42.201Z,70.58
2022-09-29T11:12:33.253Z,70.16
2022-09-29T11:15:23.747Z,70.36
2022-09-29T11:17:56.731Z,70.41
2022-09-29T11:20:36.983Z,70.21
2022-09-29T11:23:25.390Z,70.30
2022-09-29T11:26:22.081Z,69.88
2022-09-29T11:29:15.281Z,69.88
2022-09-29T11:32:02.106Z,70.10
2022-09-29T11:34:49.426Z,69.98
2022-09-29T11:37:39.614Z,70.02
2022-09-29T11:40:20.610Z,69.96
2022-09-29T11:43:15.449Z,69.94
2022-09-29T11:45:57.781Z,69.73
2022-09-29T11:48:53.791Z,69.04
2022-09-29T11:51:34.753Z,68.71
2022-09-29T11:54:25.077Z,68.89
2022-09-29T11:57:06.226Z,68.52
2022-09-29T12:00:00.412Z,68.17
2022-09-29T12:03:02.284Z,67.90
2022-09-29T12:05:46.907Z,66.82
2022-09-29T12:08:32.518Z,66.70
2022-09-29T12:11:40.540Z,66.88
2022-09-29T12:14:09.040Z,66.02
2022-09-29T12:16:46.194Z,65.32
2022-09-29T12:19:22.500Z,65.29
2022-09-29T12:21:58.794Z,65.32
2022-09-29T12:24:39.063Z,64.91
2022-09-29T12:27:18.013Z,65.04
2022-09-29T12:29:56.984Z,65.19
2022-09-29T12:32:36.930Z,65.21
2022-09-29T12:35:15.907Z,65.21
2022-09-29T12:37:53.691Z,65.22
2022-09-29T12:40:34.203Z,65.34
2022-09-29T12:43:18.725Z,65.40
2022-09-29T12:45:58.648Z,64.69
2022-09-29T12:48:46.639Z,64.26
2022-09-29T12:51:24.319Z,64.33
2022-09-29T12:54:08.974Z,64.25
2022-09-29T12:56:48.471Z,64.19
2022-09-29T12:59:30.468Z,64.12
2022-09-29T13:02:09.439Z,64.05
2022-09-29T13:05:19.431Z,63.73
2022-09-29T13:08:29.828Z,63.79
2022-09-29T13:11:24.154Z,64.38
2022-09-29T13:14:08.619Z,63.99
2022-09-29T13:16:54.974Z,63.34
2022-09-29T13:20:03.104Z,63.53
2022-09-29T13:22:54.466Z,63.86
2022-09-29T13:25:34.850Z,64.14
2022-09-29T13:28:27.624Z,64.27
2022-09-29T13:31:04.191Z,64.41
2022-09-29T13:33:36.953Z,64.49
2022-09-29T13:36:10.507Z,64.68
2022-09-29T13:38:49.376Z,64.84
2022-09-29T13:41:37.455Z,64.95
2022-09-29T13:44:25.328Z,64.87
2022-09-29T13:46:56.370Z,64.76
2022-09-29T13:49:31.786Z,64.80
2022-09-29T13:52:40.311Z,64.73
2022-09-29T13:55:48.312Z,64.65
2022-09-29T13:58:26.966Z,64.45
2022-09-29T14:01:02.191Z,64.65
2022-09-29T14:03:38.386Z,64.63
2022-09-29T14:06:39.811Z,64.70
2022-09-29T14:09:16.373Z,64.49
2022-09-29T14:11:52.899Z,64.62
2022-09-29T14:14:27.606Z,64.75
2022-09-29T14:17:05.510Z,64.49
2022-09-29T14:19:45.356Z,64.51
2022-09-29T14:22:52.015Z,64.34
2022-09-29T14:25:53.873Z,64.47
2022-09-29T14:28:39.331Z,64.35
2022-09-29T14:31:23.212Z,64.30
2022-09-29T14:33:56.603Z,64.23
2022-09-29T14:36:29.664Z,64.25
2022-09-29T14:39:25.250Z,64.37
2022-09-29T14:41:54.636Z,64.34
2022-09-29T14:44:50.690Z,64.03
2022-09-29T14:47:55.823Z,63.93
2022-09-29T14:51:02.920Z,63.79
2022-09-29T14:53:56.656Z,63.98
2022-09-29T14:56:41.737Z,64.12
2022-09-29T14:59:25.502Z,63.84
2022-09-29T15:02:19.386Z,63.65
2022-09-29T15:04:52.265Z,63.85
2022-09-29T15:07:27.002Z,63.35
2022-09-29T15:10:01.120Z,63.28
2022-09-29T15:12:35.490Z,63.47
2022-09-29T15:15:21.846Z,63.45
2022-09-29T15:18:01.315Z,63.29
2022-09-29T15:20:51.228Z,63.52
2022-09-29T15:23:56.078Z,63.40
2022-09-29T15:26:32.513Z,63.50
2022-09-29T15:29:11.606Z,63.83
2022-09-29T15:35:33.212Z,64.25
2022-09-29T15:38:32.602Z,64.13
2022-09-29T15:41:15.871Z,64.18
2022-09-29T15:43:56.644Z,64.03
2022-09-29T15:46:41.646Z,64.24
2022-09-29T15:49:18.614Z,64.53
2022-09-29T15:52:01.203Z,64.57
2022-09-29T15:57:50.488Z,64.75
2022-09-29T16:00:58.989Z,65.01
2022-09-29T16:03:41.142Z,65.10
2022-09-29T16:06:24.701Z,65.37
2022-09-29T16:09:00.519Z,65.29
2022-09-29T16:11:37.733Z,65.56
2022-09-29T16:14:17.450Z,65.80
2022-09-29T16:16:52.557Z,65.83
2022-09-29T16:19:27.776Z,65.83
2022-09-29T16:22:02.310Z,65.78
2022-09-29T16:24:37.412Z,66.00
2022-09-29T16:27:44.904Z,66.21
2022-09-29T16:30:26.160Z,66.18
2022-09-29T16:33:06.374Z,66.33
2022-09-29T16:35:48.949Z,66.81
2022-09-29T16:38:28.008Z,66.99
2022-09-29T16:41:00.275Z,67.11
2022-09-29T16:43:34.896Z,67.27
2022-09-29T16:46:10.243Z,67.48
2022-09-29T16:48:46.854Z,67.67
2022-09-29T16:51:38.203Z,67.71
2022-09-29T16:54:18.335Z,67.88
2022-09-29T16:57:10.378Z,67.66
2022-09-29T16:59:42.463Z,67.71
2022-09-29T17:02:15.529Z,67.68
2022-09-29T17:04:47.848Z,67.83
2022-09-29T17:07:23.085Z,68.28
2022-09-29T17:09:57.024Z,68.61
2022-09-29T17:12:31.531Z,68.79
2022-09-29T17:15:04.818Z,69.00
2022-09-29T17:17:37.329Z,69.11
2022-09-29T17:20:15.252Z,69.16
2022-09-29T17:22:49.132Z,69.35
2022-09-29T17:25:21.346Z,69.28
2022-09-29T17:28:11.253Z,69.59
2022-09-29T17:30:46.263Z,69.62
2022-09-29T17:33:19.733Z,69.33
2022-09-29T17:35:56.400Z,69.24
2022-09-29T17:38:27.890Z,68.98
2022-09-29T17:41:03.841Z,69.00
2022-09-29T17:43:36.243Z,69.32
2022-09-29T17:46:14.225Z,69.21
2022-09-29T17:48:48.034Z,69.34
2022-09-29T17:51:20.866Z,69.61
2022-09-29T17:53:53.494Z,69.57
2022-09-29T17:56:27.579Z,69.55
2022-09-29T17:59:03.157Z,69.87
2022-09-29T18:01:36.310Z,69.85
2022-09-29T18:04:09.450Z,70.01
2022-09-29T18:06:44.768Z,69.97
2022-09-29T18:09:19.350Z,69.97
2022-09-29T18:11:51.469Z,70.02
2022-09-29T18:14:23.902Z,70.12
2022-09-29T18:16:56.695Z,70.15
2022-09-29T18:19:28.962Z,70.15
2022-09-29T18:22:01.468Z,70.17
2022-09-29T18:24:33.696Z,70.25
2022-09-29T18:27:05.971Z,70.22
2022-09-29T18:29:39.004Z,70.36
2022-09-29T18:32:17.421Z,70.48
2022-09-29T18:34:49.649Z,70.55
2022-09-29T18:37:21.913Z,70.53
2022-09-29T18:39:54.498Z,70.68
2022-09-29T18:42:26.885Z,70.62
2022-09-29T18:44:59.135Z,70.65
2022-09-29T18:47:31.513Z,70.53
2022-09-29T18:50:05.552Z,70.52
2022-09-29T18:52:38.174Z,70.59
2022-09-29T18:55:13.461Z,70.62
2022-09-29T18:57:45.692Z,70.67
2022-09-29T19:00:20.890Z,70.68
2022-09-29T19:02:53.442Z,70.76
2022-09-29T19:05:29.236Z,70.97
2022-09-29T19:08:03.373Z,71.01
2022-09-29T19:10:37.384Z,71.02
2022-09-29T19:13:15.568Z,71.13
2022-09-29T19:15:48.839Z,71.11
2022-09-29T19:18:24.992Z,71.25
2022-09-29T19:20:59.821Z,71.14
2022-09-29T19:23:32.065Z,71.21
2022-09-29T19:26:09.352Z,71.21
2022-09-29T19:28:42.543Z,71.28
2022-09-29T19:31:19.428Z,71.29
2022-09-29T19:33:52.436Z,71.26
2022-09-29T19:36:24.715Z,71.37
2022-09-29T19:38:57.566Z,71.42
2022-09-29T19:41:29.875Z,71.49
2022-09-29T19:44:02.245Z,71.58
2022-09-29T19:46:34.452Z,71.73
2022-09-29T19:49:07.319Z,71.90
2022-09-29T19:51:53.078Z,71.97
2022-09-29T19:54:27.539Z,72.18
2022-09-29T19:57:02.951Z,72.28
2022-09-29T19:59:39.485Z,72.47
2022-09-29T20:02:18.717Z,72.53
2022-09-29T20:04:52.310Z,72.55
2022-09-29T20:07:24.790Z,72.58
2022-09-29T20:09:57.012Z,72.68
2022-09-29T20:12:29.470Z,72.70
2022-09-29T20:15:02.378Z,72.71
2022-09-29T20:17:35.037Z,72.69
2022-09-29T20:20:09.418Z,72.75
2022-09-29T20:22:42.261Z,72.78
2022-09-29T20:25:14.895Z,73.01
2022-09-29T20:27:47.146Z,73.01
2022-09-29T20:30:20.855Z,73.02
2022-09-29T20:32:53.417Z,73.08
2022-09-29T20:35:26.303Z,73.06
2022-09-29T20:37:58.492Z,73.10
2022-09-29T20:40:30.716Z,73.17
2022-09-29T20:43:03.068Z,73.18
2022-09-29T20:45:35.270Z,73.15
2022-09-29T20:48:07.917Z,73.16
2022-09-29T20:50:40.510Z,73.23
2022-09-29T20:53:12.862Z,73.23
2022-09-29T20:55:46.629Z,73.32
2022-09-29T20:58:19.142Z,73.27
2022-09-29T21:00:51.314Z,73.22
2022-09-29T21:03:23.991Z,73.33
2022-09-29T21:05:56.821Z,73.43
2022-09-29T21:08:30.029Z,73.40
2022-09-29T21:11:04.374Z,73.36
2022-09-29T21:13:36.747Z,73.43
2022-09-29T21:16:09.628Z,73.30
2022-09-29T21:18:41.975Z,73.36
2022-09-29T21:21:16.421Z,73.39
2022-09-29T21:23:49.731Z,73.26
2022-09-29T21:26:24.747Z,73.38
2022-09-29T21:28:59.273Z,73.27
2022-09-29T21:31:34.019Z,73.36
2022-09-29T21:34:07.861Z,73.39
2022-09-29T21:36:40.684Z,73.41
2022-09-29T21:39:14.667Z,73.26
2022-09-29T21:41:47.869Z,73.37
2022-09-29T21:44:23.530Z,73.38
2022-09-29T21:46:56.496Z,73.46
2022-09-29T21:49:28.666Z,73.40
2022-09-29T21:52:02.107Z,73.40
2022-09-29T21:54:37.743Z,73.44
2022-09-29T21:57:10.289Z,73.43
2022-09-29T21:59:42.488Z,73.57
2022-09-29T22:02:15.214Z,73.61
2022-09-29T22:04:47.509Z,73.58
2022-09-29T22:07:20.352Z,73.63
2022-09-29T22:09:52.772Z,73.66
2022-09-29T22:12:26.194Z,73.70
2022-09-29T22:14:58.966Z,73.80
2022-09-29T22:17:31.207Z,73.80
2022-09-29T22:20:04.163Z,73.79
2022-09-29T22:22:36.460Z,73.81
2022-09-29T22:25:10.204Z,73.85
2022-09-29T22:27:42.449Z,73.90
2022-09-29T22:30:15.537Z,74.01
2022-09-29T22:32:47.806Z,74.04
2022-09-29T22:35:21.877Z,74.06
2022-09-29T22:37:54.856Z,74.14
2022-09-29T22:40:28.133Z,74.29
2022-09-29T22:43:00.811Z,74.23
2022-09-29T22:45:33.658Z,74.40
2022-09-29T22:48:06.155Z,74.47
2022-09-29T22:50:38.329Z,74.60
2022-09-29T22:53:11.089Z,74.82
2022-09-29T22:55:43.907Z,74.79
2022-09-29T22:58:16.529Z,74.96
2022-09-29T23:00:49.466Z,75.01
2022-09-29T23:03:21.633Z,75.02
2022-09-29T23:05:59.537Z,75.01
2022-09-29T23:08:32.666Z,75.12
2022-09-29T23:11:07.839Z,75.20
2022-09-29T23:13:40.855Z,75.30
2022-09-29T23:16:15.086Z,75.29
2022-09-29T23:18:52.774Z,75.39
2022-09-29T23:21:26.552Z,75.48
2022-09-29T23:24:00.756Z,75.82
2022-09-29T23:26:34.369Z,75.70
2022-09-29T23:29:07.908Z,75.84
2022-09-29T23:31:40.538Z,75.95
2022-09-29T23:34:14.669Z,75.92
2022-09-29T23:36:47.238Z,76.09
2022-09-29T23:39:19.617Z,76.22
2022-09-29T23:41:53.922Z,76.35
2022-09-29T23:44:28.519Z,76.77
2022-09-29T23:47:01.253Z,76.76
2022-09-29T23:49:33.612Z,76.78
2022-09-29T23:52:06.252Z,77.06
2022-09-29T23:54:38.450Z,76.98
2022-09-29T23:57:10.966Z,77.19
2022-09-29T23:59:43.319Z,77.30
